sensor_id;sensor_type;location;lat;lon;timestamp;P1;durP1;ratioP1;P2;durP2;ratioP2
3916;SDS011;1973;50.518;7.318;2022-10-16T00:00:54;3.10;;;1.57;;
3916;SDS011;1973;50.518;7.318;2022-10-16T00:03:20;2.13;;;1.40;;
3916;SDS011;1973;50.518;7.318;2022-10-16T00:05:53;4.53;;;1.53;;
3916;SDS011;1973;50.518;7.318;2022-10-16T00:08:19;3.80;;;1.60;;
3916;SDS011;1973;50.518;7.318;2022-10-16T00:10:45;4.27;;;1.70;;
3916;SDS011;1973;50.518;7.318;2022-10-16T00:13:12;2.00;;;1.53;;
3916;SDS011;1973;50.518;7.318;2022-10-16T00:15:38;3.30;;;1.80;;
3916;SDS011;1973;50.518;7.318;2022-10-16T00:18:06;3.40;;;1.63;;
3916;SDS011;1973;50.518;7.318;2022-10-16T00:20:36;5.10;;;2.20;;
3916;SDS011;1973;50.518;7.318;2022-10-16T00:23:03;4.40;;;1.77;;
3916;SDS011;1973;50.518;7.318;2022-10-16T00:25:31;4.67;;;2.10;;
3916;SDS011;1973;50.518;7.318;2022-10-16T00:28:00;7.00;;;2.10;;
3916;SDS011;1973;50.518;7.318;2022-10-16T00:30:26;6.13;;;2.00;;
3916;SDS011;1973;50.518;7.318;2022-10-16T00:32:54;2.90;;;2.03;;
3916;SDS011;1973;50.518;7.318;2022-10-16T00:35:20;3.00;;;1.30;;
3916;SDS011;1973;50.518;7.318;2022-10-16T00:37:47;2.63;;;1.37;;
3916;SDS011;1973;50.518;7.318;2022-10-16T00:40:14;6.00;;;2.57;;
3916;SDS011;1973;50.518;7.318;2022-10-16T00:42:40;5.30;;;1.87;;
3916;SDS011;1973;50.518;7.318;2022-10-16T00:45:08;3.90;;;1.67;;
3916;SDS011;1973;50.518;7.318;2022-10-16T00:47:44;6.50;;;1.70;;
3916;SDS011;1973;50.518;7.318;2022-10-16T00:50:16;2.83;;;1.57;;
3916;SDS011;1973;50.518;7.318;2022-10-16T00:52:54;2.63;;;1.80;;
3916;SDS011;1973;50.518;7.318;2022-10-16T00:55:21;8.53;;;1.57;;
3916;SDS011;1973;50.518;7.318;2022-10-16T00:57:49;4.67;;;1.70;;
3916;SDS011;1973;50.518;7.318;2022-10-16T01:00:19;2.10;;;1.90;;
3916;SDS011;1973;50.518;7.318;2022-10-16T01:02:54;10.97;;;2.03;;
3916;SDS011;1973;50.518;7.318;2022-10-16T01:05:23;4.30;;;1.63;;
3916;SDS011;1973;50.518;7.318;2022-10-16T01:08:03;2.97;;;1.47;;
3916;SDS011;1973;50.518;7.318;2022-10-16T01:10:40;3.40;;;1.20;;
3916;SDS011;1973;50.518;7.318;2022-10-16T01:13:18;6.27;;;1.70;;
3916;SDS011;1973;50.518;7.318;2022-10-16T01:15:53;2.60;;;1.40;;
3916;SDS011;1973;50.518;7.318;2022-10-16T01:21:04;4.77;;;1.70;;
3916;SDS011;1973;50.518;7.318;2022-10-16T01:23:51;6.70;;;1.57;;
3916;SDS011;1973;50.518;7.318;2022-10-16T01:29:17;3.93;;;1.30;;
3916;SDS011;1973;50.518;7.318;2022-10-16T01:31:52;5.83;;;1.60;;
3916;SDS011;1973;50.518;7.318;2022-10-16T01:34:37;2.10;;;1.30;;
3916;SDS011;1973;50.518;7.318;2022-10-16T01:37:09;11.60;;;1.60;;
3916;SDS011;1973;50.518;7.318;2022-10-16T01:39:41;5.57;;;1.70;;
3916;SDS011;1973;50.518;7.318;2022-10-16T01:42:13;6.57;;;1.77;;
3916;SDS011;1973;50.518;7.318;2022-10-16T01:44:43;2.50;;;1.50;;
3916;SDS011;1973;50.518;7.318;2022-10-16T01:47:11;9.60;;;1.50;;
3916;SDS011;1973;50.518;7.318;2022-10-16T01:49:40;2.60;;;1.40;;
3916;SDS011;1973;50.518;7.318;2022-10-16T01:52:10;3.10;;;1.50;;
3916;SDS011;1973;50.518;7.318;2022-10-16T01:54:42;3.30;;;1.80;;
3916;SDS011;1973;50.518;7.318;2022-10-16T01:57:12;5.87;;;1.50;;
3916;SDS011;1973;50.518;7.318;2022-10-16T01:59:42;5.40;;;1.70;;
3916;SDS011;1973;50.518;7.318;2022-10-16T02:02:12;2.20;;;1.60;;
3916;SDS011;1973;50.518;7.318;2022-10-16T02:04:45;2.47;;;1.30;;
3916;SDS011;1973;50.518;7.318;2022-10-16T02:07:15;6.70;;;1.90;;
3916;SDS011;1973;50.518;7.318;2022-10-16T02:09:42;8.23;;;1.90;;
3916;SDS011;1973;50.518;7.318;2022-10-16T02:12:10;4.50;;;1.70;;
3916;SDS011;1973;50.518;7.318;2022-10-16T02:14:41;2.00;;;1.40;;
3916;SDS011;1973;50.518;7.318;2022-10-16T02:17:12;5.93;;;1.80;;
3916;SDS011;1973;50.518;7.318;2022-10-16T02:19:41;2.13;;;1.30;;
3916;SDS011;1973;50.518;7.318;2022-10-16T02:22:09;4.13;;;1.63;;
3916;SDS011;1973;50.518;7.318;2022-10-16T02:24:59;1.40;;;1.30;;
3916;SDS011;1973;50.518;7.318;2022-10-16T02:33:02;6.07;;;2.40;;
3916;SDS011;1973;50.518;7.318;2022-10-16T02:35:33;7.23;;;1.70;;
3916;SDS011;1973;50.518;7.318;2022-10-16T02:38:00;2.37;;;1.20;;
3916;SDS011;1973;50.518;7.318;2022-10-16T02:40:27;2.90;;;1.53;;
3916;SDS011;1973;50.518;7.318;2022-10-16T02:42:54;5.07;;;1.57;;
3916;SDS011;1973;50.518;7.318;2022-10-16T02:45:22;5.03;;;1.47;;
3916;SDS011;1973;50.518;7.318;2022-10-16T02:47:49;4.50;;;1.60;;
3916;SDS011;1973;50.518;7.318;2022-10-16T02:50:15;2.87;;;1.30;;
3916;SDS011;1973;50.518;7.318;2022-10-16T02:52:42;4.53;;;1.60;;
3916;SDS011;1973;50.518;7.318;2022-10-16T02:55:08;3.40;;;1.40;;
3916;SDS011;1973;50.518;7.318;2022-10-16T02:57:35;1.80;;;1.40;;
3916;SDS011;1973;50.518;7.318;2022-10-16T03:00:03;1.53;;;1.33;;
3916;SDS011;1973;50.518;7.318;2022-10-16T03:02:31;3.60;;;1.60;;
3916;SDS011;1973;50.518;7.318;2022-10-16T03:04:57;2.90;;;1.50;;
3916;SDS011;1973;50.518;7.318;2022-10-16T03:07:24;5.07;;;1.70;;
3916;SDS011;1973;50.518;7.318;2022-10-16T03:09:50;2.70;;;1.60;;
3916;SDS011;1973;50.518;7.318;2022-10-16T03:12:17;2.93;;;1.50;;
3916;SDS011;1973;50.518;7.318;2022-10-16T03:14:43;4.50;;;1.43;;
3916;SDS011;1973;50.518;7.318;2022-10-16T03:17:10;2.50;;;1.87;;
3916;SDS011;1973;50.518;7.318;2022-10-16T03:19:36;4.30;;;1.77;;
3916;SDS011;1973;50.518;7.318;2022-10-16T03:22:03;5.70;;;1.87;;
3916;SDS011;1973;50.518;7.318;2022-10-16T03:24:29;3.80;;;1.40;;
3916;SDS011;1973;50.518;7.318;2022-10-16T03:26:55;4.53;;;1.57;;
3916;SDS011;1973;50.518;7.318;2022-10-16T03:29:22;8.17;;;1.77;;
3916;SDS011;1973;50.518;7.318;2022-10-16T03:31:48;3.83;;;1.97;;
3916;SDS011;1973;50.518;7.318;2022-10-16T03:34:15;3.13;;;1.50;;
3916;SDS011;1973;50.518;7.318;2022-10-16T03:36:42;2.63;;;1.83;;
3916;SDS011;1973;50.518;7.318;2022-10-16T03:39:08;3.07;;;1.60;;
3916;SDS011;1973;50.518;7.318;2022-10-16T03:41:35;2.10;;;1.90;;
3916;SDS011;1973;50.518;7.318;2022-10-16T03:44:01;2.90;;;1.70;;
3916;SDS011;1973;50.518;7.318;2022-10-16T03:46:27;4.47;;;1.80;;
3916;SDS011;1973;50.518;7.318;2022-10-16T03:48:54;4.57;;;1.53;;
3916;SDS011;1973;50.518;7.318;2022-10-16T03:51:20;4.23;;;1.40;;
3916;SDS011;1973;50.518;7.318;2022-10-16T03:53:47;2.87;;;1.57;;
3916;SDS011;1973;50.518;7.318;2022-10-16T03:56:13;7.57;;;1.80;;
3916;SDS011;1973;50.518;7.318;2022-10-16T03:58:39;3.33;;;1.60;;
3916;SDS011;1973;50.518;7.318;2022-10-16T04:01:06;1.90;;;1.60;;
3916;SDS011;1973;50.518;7.318;2022-10-16T04:03:32;4.13;;;1.60;;
3916;SDS011;1973;50.518;7.318;2022-10-16T04:05:59;7.03;;;1.80;;
3916;SDS011;1973;50.518;7.318;2022-10-16T04:08:25;4.00;;;1.63;;
3916;SDS011;1973;50.518;7.318;2022-10-16T04:10:52;6.20;;;1.83;;
3916;SDS011;1973;50.518;7.318;2022-10-16T04:13:18;3.20;;;2.03;;
3916;SDS011;1973;50.518;7.318;2022-10-16T04:15:50;4.83;;;2.30;;
3916;SDS011;1973;50.518;7.318;2022-10-16T04:18:16;4.90;;;2.13;;
3916;SDS011;1973;50.518;7.318;2022-10-16T04:20:42;4.77;;;1.67;;
3916;SDS011;1973;50.518;7.318;2022-10-16T04:23:09;5.43;;;2.07;;
3916;SDS011;1973;50.518;7.318;2022-10-16T04:25:35;3.47;;;1.67;;
3916;SDS011;1973;50.518;7.318;2022-10-16T04:28:02;2.67;;;2.17;;
3916;SDS011;1973;50.518;7.318;2022-10-16T04:30:28;3.80;;;2.20;;
3916;SDS011;1973;50.518;7.318;2022-10-16T04:32:55;2.00;;;1.80;;
3916;SDS011;1973;50.518;7.318;2022-10-16T04:35:21;2.63;;;2.23;;
3916;SDS011;1973;50.518;7.318;2022-10-16T04:37:48;4.43;;;2.30;;
3916;SDS011;1973;50.518;7.318;2022-10-16T04:40:14;2.57;;;1.93;;
3916;SDS011;1973;50.518;7.318;2022-10-16T04:42:41;2.50;;;1.77;;
3916;SDS011;1973;50.518;7.318;2022-10-16T04:45:07;3.00;;;2.30;;
3916;SDS011;1973;50.518;7.318;2022-10-16T04:47:39;3.00;;;2.40;;
3916;SDS011;1973;50.518;7.318;2022-10-16T04:50:06;3.50;;;1.90;;
3916;SDS011;1973;50.518;7.318;2022-10-16T04:52:33;3.73;;;1.80;;
3916;SDS011;1973;50.518;7.318;2022-10-16T04:55:05;2.93;;;1.83;;
3916;SDS011;1973;50.518;7.318;2022-10-16T04:57:31;4.17;;;2.67;;
3916;SDS011;1973;50.518;7.318;2022-10-16T04:59:59;2.03;;;1.93;;
3916;SDS011;1973;50.518;7.318;2022-10-16T05:02:26;4.30;;;2.23;;
3916;SDS011;1973;50.518;7.318;2022-10-16T05:04:52;3.10;;;2.07;;
3916;SDS011;1973;50.518;7.318;2022-10-16T05:07:19;3.33;;;1.97;;
3916;SDS011;1973;50.518;7.318;2022-10-16T05:09:45;3.67;;;1.83;;
3916;SDS011;1973;50.518;7.318;2022-10-16T05:12:12;2.37;;;1.80;;
3916;SDS011;1973;50.518;7.318;2022-10-16T05:14:38;3.33;;;2.27;;
3916;SDS011;1973;50.518;7.318;2022-10-16T05:17:05;1.80;;;1.20;;
3916;SDS011;1973;50.518;7.318;2022-10-16T05:19:32;2.50;;;1.30;;
3916;SDS011;1973;50.518;7.318;2022-10-16T05:21:58;2.10;;;1.63;;
3916;SDS011;1973;50.518;7.318;2022-10-16T05:24:25;2.10;;;1.50;;
3916;SDS011;1973;50.518;7.318;2022-10-16T05:26:52;2.70;;;1.30;;
3916;SDS011;1973;50.518;7.318;2022-10-16T05:29:18;4.90;;;1.37;;
3916;SDS011;1973;50.518;7.318;2022-10-16T05:31:45;2.70;;;1.30;;
3916;SDS011;1973;50.518;7.318;2022-10-16T05:34:11;2.00;;;1.80;;
3916;SDS011;1973;50.518;7.318;2022-10-16T05:36:38;2.60;;;1.00;;
3916;SDS011;1973;50.518;7.318;2022-10-16T05:39:04;3.83;;;1.30;;
3916;SDS011;1973;50.518;7.318;2022-10-16T05:41:31;2.93;;;1.20;;
3916;SDS011;1973;50.518;7.318;2022-10-16T05:43:57;2.10;;;1.30;;
3916;SDS011;1973;50.518;7.318;2022-10-16T05:46:24;1.93;;;1.50;;
3916;SDS011;1973;50.518;7.318;2022-10-16T05:48:53;2.13;;;1.50;;
3916;SDS011;1973;50.518;7.318;2022-10-16T05:51:19;2.43;;;0.90;;
3916;SDS011;1973;50.518;7.318;2022-10-16T05:53:46;3.30;;;1.27;;
3916;SDS011;1973;50.518;7.318;2022-10-16T05:56:12;3.30;;;1.20;;
3916;SDS011;1973;50.518;7.318;2022-10-16T05:58:39;2.90;;;1.00;;
3916;SDS011;1973;50.518;7.318;2022-10-16T06:01:10;1.47;;;1.10;;
3916;SDS011;1973;50.518;7.318;2022-10-16T06:03:38;3.20;;;1.23;;
3916;SDS011;1973;50.518;7.318;2022-10-16T06:06:09;2.30;;;1.23;;
3916;SDS011;1973;50.518;7.318;2022-10-16T06:08:37;1.70;;;1.27;;
3916;SDS011;1973;50.518;7.318;2022-10-16T06:11:06;1.67;;;1.00;;
3916;SDS011;1973;50.518;7.318;2022-10-16T06:13:34;1.30;;;1.00;;
3916;SDS011;1973;50.518;7.318;2022-10-16T06:16:01;3.20;;;1.10;;
3916;SDS011;1973;50.518;7.318;2022-10-16T06:18:29;4.30;;;0.80;;
3916;SDS011;1973;50.518;7.318;2022-10-16T06:20:56;3.40;;;1.10;;
3916;SDS011;1973;50.518;7.318;2022-10-16T06:23:24;2.27;;;0.97;;
3916;SDS011;1973;50.518;7.318;2022-10-16T06:25:51;1.40;;;1.17;;
3916;SDS011;1973;50.518;7.318;2022-10-16T06:28:17;5.03;;;1.20;;
3916;SDS011;1973;50.518;7.318;2022-10-16T06:30:44;2.37;;;0.97;;
3916;SDS011;1973;50.518;7.318;2022-10-16T06:33:11;1.20;;;0.80;;
3916;SDS011;1973;50.518;7.318;2022-10-16T06:35:38;2.07;;;1.00;;
3916;SDS011;1973;50.518;7.318;2022-10-16T06:38:05;1.47;;;1.10;;
3916;SDS011;1973;50.518;7.318;2022-10-16T06:40:31;1.53;;;1.00;;
3916;SDS011;1973;50.518;7.318;2022-10-16T06:42:57;2.30;;;1.17;;
3916;SDS011;1973;50.518;7.318;2022-10-16T06:45:24;2.27;;;1.23;;
3916;SDS011;1973;50.518;7.318;2022-10-16T06:47:50;2.60;;;1.10;;
3916;SDS011;1973;50.518;7.318;2022-10-16T06:50:17;2.30;;;0.90;;
3916;SDS011;1973;50.518;7.318;2022-10-16T06:52:43;2.13;;;1.37;;
3916;SDS011;1973;50.518;7.318;2022-10-16T06:55:10;1.80;;;0.97;;
3916;SDS011;1973;50.518;7.318;2022-10-16T06:57:36;4.60;;;1.80;;
3916;SDS011;1973;50.518;7.318;2022-10-16T07:00:02;2.33;;;1.00;;
3916;SDS011;1973;50.518;7.318;2022-10-16T07:02:29;2.40;;;1.20;;
3916;SDS011;1973;50.518;7.318;2022-10-16T07:04:56;2.10;;;1.03;;
3916;SDS011;1973;50.518;7.318;2022-10-16T07:07:23;1.40;;;1.00;;
3916;SDS011;1973;50.518;7.318;2022-10-16T07:09:50;4.23;;;1.67;;
3916;SDS011;1973;50.518;7.318;2022-10-16T07:12:17;1.47;;;1.07;;
3916;SDS011;1973;50.518;7.318;2022-10-16T07:14:43;1.57;;;1.00;;
3916;SDS011;1973;50.518;7.318;2022-10-16T07:17:10;2.93;;;0.90;;
3916;SDS011;1973;50.518;7.318;2022-10-16T07:19:36;1.63;;;1.10;;
3916;SDS011;1973;50.518;7.318;2022-10-16T07:22:03;1.73;;;1.00;;
3916;SDS011;1973;50.518;7.318;2022-10-16T07:24:30;1.40;;;1.10;;
3916;SDS011;1973;50.518;7.318;2022-10-16T07:26:57;1.90;;;1.03;;
3916;SDS011;1973;50.518;7.318;2022-10-16T07:29:23;3.33;;;1.43;;
3916;SDS011;1973;50.518;7.318;2022-10-16T07:31:50;2.40;;;1.70;;
3916;SDS011;1973;50.518;7.318;2022-10-16T07:34:17;3.10;;;2.80;;
3916;SDS011;1973;50.518;7.318;2022-10-16T07:36:47;3.90;;;3.50;;
3916;SDS011;1973;50.518;7.318;2022-10-16T07:39:14;3.53;;;2.90;;
3916;SDS011;1973;50.518;7.318;2022-10-16T07:41:41;3.67;;;3.30;;
3916;SDS011;1973;50.518;7.318;2022-10-16T07:44:07;3.27;;;2.53;;
3916;SDS011;1973;50.518;7.318;2022-10-16T07:46:34;3.00;;;2.00;;
3916;SDS011;1973;50.518;7.318;2022-10-16T07:49:02;1.90;;;1.70;;
3916;SDS011;1973;50.518;7.318;2022-10-16T07:51:30;1.80;;;1.50;;
3916;SDS011;1973;50.518;7.318;2022-10-16T07:53:57;1.67;;;1.40;;
3916;SDS011;1973;50.518;7.318;2022-10-16T07:56:23;1.70;;;1.30;;
3916;SDS011;1973;50.518;7.318;2022-10-16T07:58:50;6.30;;;1.40;;
3916;SDS011;1973;50.518;7.318;2022-10-16T08:01:17;1.83;;;0.97;;
3916;SDS011;1973;50.518;7.318;2022-10-16T08:03:45;2.10;;;1.20;;
3916;SDS011;1973;50.518;7.318;2022-10-16T08:06:13;1.83;;;1.73;;
3916;SDS011;1973;50.518;7.318;2022-10-16T08:08:40;4.03;;;2.43;;
3916;SDS011;1973;50.518;7.318;2022-10-16T08:11:07;1.77;;;1.40;;
3916;SDS011;1973;50.518;7.318;2022-10-16T08:13:34;7.43;;;6.30;;
3916;SDS011;1973;50.518;7.318;2022-10-16T08:16:01;14.80;;;13.20;;
3916;SDS011;1973;50.518;7.318;2022-10-16T08:18:27;9.10;;;6.00;;
3916;SDS011;1973;50.518;7.318;2022-10-16T08:20:57;4.40;;;3.17;;
3916;SDS011;1973;50.518;7.318;2022-10-16T08:23:26;2.80;;;1.97;;
3916;SDS011;1973;50.518;7.318;2022-10-16T08:25:53;3.10;;;2.70;;
3916;SDS011;1973;50.518;7.318;2022-10-16T08:28:21;3.10;;;2.70;;
3916;SDS011;1973;50.518;7.318;2022-10-16T08:30:48;2.97;;;2.60;;
3916;SDS011;1973;50.518;7.318;2022-10-16T08:33:15;2.20;;;2.00;;
3916;SDS011;1973;50.518;7.318;2022-10-16T08:35:41;2.47;;;1.60;;
3916;SDS011;1973;50.518;7.318;2022-10-16T08:38:08;1.30;;;0.90;;
3916;SDS011;1973;50.518;7.318;2022-10-16T08:40:36;2.23;;;1.10;;
3916;SDS011;1973;50.518;7.318;2022-10-16T08:51:07;1.63;;;1.30;;
3916;SDS011;1973;50.518;7.318;2022-10-16T08:53:44;2.17;;;1.00;;
3916;SDS011;1973;50.518;7.318;2022-10-16T08:56:16;4.47;;;1.50;;
3916;SDS011;1973;50.518;7.318;2022-10-16T08:58:43;3.60;;;1.50;;
3916;SDS011;1973;50.518;7.318;2022-10-16T09:01:13;2.10;;;1.63;;
3916;SDS011;1973;50.518;7.318;2022-10-16T09:06:52;2.23;;;1.77;;
3916;SDS011;1973;50.518;7.318;2022-10-16T09:09:25;3.40;;;1.70;;
3916;SDS011;1973;50.518;7.318;2022-10-16T09:15:14;1.47;;;1.00;;
3916;SDS011;1973;50.518;7.318;2022-10-16T09:23:25;1.40;;;1.03;;
3916;SDS011;1973;50.518;7.318;2022-10-16T09:25:53;2.70;;;0.93;;
3916;SDS011;1973;50.518;7.318;2022-10-16T09:28:21;2.33;;;0.93;;
3916;SDS011;1973;50.518;7.318;2022-10-16T09:30:48;2.73;;;1.10;;
3916;SDS011;1973;50.518;7.318;2022-10-16T09:33:16;2.07;;;1.27;;
3916;SDS011;1973;50.518;7.318;2022-10-16T09:35:45;2.33;;;1.53;;
3916;SDS011;1973;50.518;7.318;2022-10-16T09:38:27;1.50;;;0.90;;
3916;SDS011;1973;50.518;7.318;2022-10-16T09:40:55;1.93;;;0.70;;
3916;SDS011;1973;50.518;7.318;2022-10-16T09:46:01;1.60;;;0.90;;
3916;SDS011;1973;50.518;7.318;2022-10-16T09:48:48;1.27;;;0.90;;
3916;SDS011;1973;50.518;7.318;2022-10-16T09:51:27;1.47;;;0.80;;
3916;SDS011;1973;50.518;7.318;2022-10-16T09:53:57;3.43;;;0.93;;
3916;SDS011;1973;50.518;7.318;2022-10-16T09:56:31;1.20;;;0.87;;
3916;SDS011;1973;50.518;7.318;2022-10-16T09:59:22;1.53;;;0.93;;
3916;SDS011;1973;50.518;7.318;2022-10-16T10:01:53;1.50;;;0.80;;
3916;SDS011;1973;50.518;7.318;2022-10-16T10:04:22;1.70;;;0.90;;
3916;SDS011;1973;50.518;7.318;2022-10-16T10:06:50;1.20;;;0.80;;
3916;SDS011;1973;50.518;7.318;2022-10-16T10:09:21;1.70;;;1.00;;
3916;SDS011;1973;50.518;7.318;2022-10-16T10:11:51;2.27;;;0.87;;
3916;SDS011;1973;50.518;7.318;2022-10-16T10:17:11;2.90;;;1.10;;
3916;SDS011;1973;50.518;7.318;2022-10-16T10:19:42;1.57;;;0.70;;
3916;SDS011;1973;50.518;7.318;2022-10-16T10:25:34;1.20;;;0.87;;
3916;SDS011;1973;50.518;7.318;2022-10-16T10:33:11;1.10;;;0.80;;
3916;SDS011;1973;50.518;7.318;2022-10-16T10:35:52;1.10;;;0.80;;
3916;SDS011;1973;50.518;7.318;2022-10-16T10:38:30;2.07;;;0.80;;
3916;SDS011;1973;50.518;7.318;2022-10-16T10:44:14;2.70;;;0.80;;
3916;SDS011;1973;50.518;7.318;2022-10-16T10:46:55;2.40;;;1.10;;
3916;SDS011;1973;50.518;7.318;2022-10-16T10:54:37;1.03;;;0.73;;
3916;SDS011;1973;50.518;7.318;2022-10-16T11:02:41;1.30;;;0.90;;
3916;SDS011;1973;50.518;7.318;2022-10-16T11:05:16;1.80;;;0.80;;
3916;SDS011;1973;50.518;7.318;2022-10-16T11:10:25;1.57;;;0.80;;
3916;SDS011;1973;50.518;7.318;2022-10-16T11:12:58;4.40;;;0.80;;
3916;SDS011;1973;50.518;7.318;2022-10-16T11:15:36;2.20;;;0.83;;
3916;SDS011;1973;50.518;7.318;2022-10-16T11:20:47;2.10;;;0.77;;
3916;SDS011;1973;50.518;7.318;2022-10-16T11:25:50;1.93;;;0.90;;
3916;SDS011;1973;50.518;7.318;2022-10-16T11:28:34;1.60;;;0.60;;
3916;SDS011;1973;50.518;7.318;2022-10-16T11:36:53;1.27;;;0.73;;
3916;SDS011;1973;50.518;7.318;2022-10-16T11:39:55;2.40;;;0.90;;
3916;SDS011;1973;50.518;7.318;2022-10-16T11:42:32;1.40;;;0.70;;
3916;SDS011;1973;50.518;7.318;2022-10-16T11:45:08;1.20;;;0.90;;
3916;SDS011;1973;50.518;7.318;2022-10-16T11:50:33;1.63;;;1.00;;
3916;SDS011;1973;50.518;7.318;2022-10-16T11:55:43;2.70;;;0.80;;
3916;SDS011;1973;50.518;7.318;2022-10-16T11:58:18;1.30;;;0.70;;
3916;SDS011;1973;50.518;7.318;2022-10-16T12:01:36;1.77;;;0.90;;
3916;SDS011;1973;50.518;7.318;2022-10-16T12:09:01;1.10;;;0.63;;
3916;SDS011;1973;50.518;7.318;2022-10-16T12:16:53;1.30;;;0.60;;
3916;SDS011;1973;50.518;7.318;2022-10-16T12:19:20;1.07;;;0.60;;
3916;SDS011;1973;50.518;7.318;2022-10-16T12:21:51;1.00;;;0.67;;
3916;SDS011;1973;50.518;7.318;2022-10-16T12:24:42;2.30;;;0.73;;
3916;SDS011;1973;50.518;7.318;2022-10-16T12:27:29;1.20;;;0.70;;
3916;SDS011;1973;50.518;7.318;2022-10-16T12:29:59;1.20;;;0.70;;
3916;SDS011;1973;50.518;7.318;2022-10-16T12:35:22;1.40;;;0.80;;
3916;SDS011;1973;50.518;7.318;2022-10-16T12:37:51;1.20;;;0.80;;
3916;SDS011;1973;50.518;7.318;2022-10-16T12:42:53;1.53;;;0.60;;
3916;SDS011;1973;50.518;7.318;2022-10-16T12:45:30;1.70;;;0.77;;
3916;SDS011;1973;50.518;7.318;2022-10-16T12:47:59;2.60;;;0.70;;
3916;SDS011;1973;50.518;7.318;2022-10-16T12:50:37;2.13;;;0.90;;
3916;SDS011;1973;50.518;7.318;2022-10-16T12:59:00;1.63;;;0.90;;
3916;SDS011;1973;50.518;7.318;2022-10-16T13:01:52;4.00;;;1.33;;
3916;SDS011;1973;50.518;7.318;2022-10-16T13:04:39;2.13;;;1.20;;
3916;SDS011;1973;50.518;7.318;2022-10-16T13:07:43;2.00;;;0.70;;
3916;SDS011;1973;50.518;7.318;2022-10-16T13:18:38;1.23;;;0.80;;
3916;SDS011;1973;50.518;7.318;2022-10-16T13:21:19;1.40;;;0.60;;
3916;SDS011;1973;50.518;7.318;2022-10-16T13:24:08;1.83;;;0.70;;
3916;SDS011;1973;50.518;7.318;2022-10-16T13:29:23;1.50;;;0.70;;
3916;SDS011;1973;50.518;7.318;2022-10-16T13:31:55;1.10;;;0.70;;
3916;SDS011;1973;50.518;7.318;2022-10-16T13:34:22;2.17;;;0.70;;
3916;SDS011;1973;50.518;7.318;2022-10-16T13:36:50;1.50;;;0.70;;
3916;SDS011;1973;50.518;7.318;2022-10-16T13:39:22;1.30;;;0.80;;
3916;SDS011;1973;50.518;7.318;2022-10-16T13:41:58;1.00;;;0.80;;
3916;SDS011;1973;50.518;7.318;2022-10-16T13:44:39;1.53;;;0.70;;
3916;SDS011;1973;50.518;7.318;2022-10-16T13:47:19;1.23;;;0.60;;
3916;SDS011;1973;50.518;7.318;2022-10-16T13:49:58;1.53;;;0.70;;
3916;SDS011;1973;50.518;7.318;2022-10-16T13:52:30;1.20;;;0.63;;
3916;SDS011;1973;50.518;7.318;2022-10-16T13:54:56;3.83;;;1.10;;
3916;SDS011;1973;50.518;7.318;2022-10-16T13:57:27;1.43;;;0.70;;
3916;SDS011;1973;50.518;7.318;2022-10-16T13:59:54;2.40;;;1.33;;
3916;SDS011;1973;50.518;7.318;2022-10-16T14:04:57;1.70;;;1.07;;
3916;SDS011;1973;50.518;7.318;2022-10-16T14:07:25;1.53;;;1.10;;
3916;SDS011;1973;50.518;7.318;2022-10-16T14:09:54;1.20;;;0.90;;
3916;SDS011;1973;50.518;7.318;2022-10-16T14:12:22;1.70;;;0.90;;
3916;SDS011;1973;50.518;7.318;2022-10-16T14:14:53;1.13;;;0.70;;
3916;SDS011;1973;50.518;7.318;2022-10-16T14:17:26;1.43;;;0.80;;
3916;SDS011;1973;50.518;7.318;2022-10-16T14:19:55;1.00;;;0.60;;
3916;SDS011;1973;50.518;7.318;2022-10-16T14:22:33;1.40;;;0.73;;
3916;SDS011;1973;50.518;7.318;2022-10-16T14:25:01;1.00;;;0.70;;
3916;SDS011;1973;50.518;7.318;2022-10-16T14:27:31;1.00;;;0.70;;
3916;SDS011;1973;50.518;7.318;2022-10-16T14:30:08;1.73;;;0.70;;
3916;SDS011;1973;50.518;7.318;2022-10-16T14:32:41;1.10;;;0.80;;
3916;SDS011;1973;50.518;7.318;2022-10-16T14:35:25;1.87;;;0.60;;
3916;SDS011;1973;50.518;7.318;2022-10-16T14:37:53;1.27;;;0.70;;
3916;SDS011;1973;50.518;7.318;2022-10-16T14:40:21;1.10;;;0.70;;
3916;SDS011;1973;50.518;7.318;2022-10-16T14:42:50;2.30;;;0.70;;
3916;SDS011;1973;50.518;7.318;2022-10-16T14:45:21;1.10;;;0.80;;
3916;SDS011;1973;50.518;7.318;2022-10-16T14:47:53;1.53;;;0.77;;
3916;SDS011;1973;50.518;7.318;2022-10-16T14:50:23;1.20;;;0.80;;
3916;SDS011;1973;50.518;7.318;2022-10-16T14:52:49;1.47;;;1.00;;
3916;SDS011;1973;50.518;7.318;2022-10-16T14:55:16;1.10;;;0.83;;
3916;SDS011;1973;50.518;7.318;2022-10-16T14:57:43;0.93;;;0.67;;
3916;SDS011;1973;50.518;7.318;2022-10-16T15:00:21;2.33;;;1.90;;
3916;SDS011;1973;50.518;7.318;2022-10-16T15:02:49;2.93;;;2.37;;
3916;SDS011;1973;50.518;7.318;2022-10-16T15:05:20;2.17;;;1.80;;
3916;SDS011;1973;50.518;7.318;2022-10-16T15:07:48;2.50;;;1.70;;
3916;SDS011;1973;50.518;7.318;2022-10-16T15:10:18;1.63;;;1.27;;
3916;SDS011;1973;50.518;7.318;2022-10-16T15:12:47;1.20;;;1.00;;
3916;SDS011;1973;50.518;7.318;2022-10-16T15:17:49;1.10;;;0.93;;
3916;SDS011;1973;50.518;7.318;2022-10-16T15:20:19;2.20;;;0.80;;
3916;SDS011;1973;50.518;7.318;2022-10-16T15:22:46;1.00;;;0.77;;
3916;SDS011;1973;50.518;7.318;2022-10-16T15:28:08;1.23;;;0.87;;
3916;SDS011;1973;50.518;7.318;2022-10-16T15:30:36;1.90;;;0.90;;
3916;SDS011;1973;50.518;7.318;2022-10-16T15:33:04;1.20;;;0.80;;
3916;SDS011;1973;50.518;7.318;2022-10-16T15:35:35;2.20;;;0.77;;
3916;SDS011;1973;50.518;7.318;2022-10-16T15:38:01;1.00;;;0.70;;
3916;SDS011;1973;50.518;7.318;2022-10-16T15:40:27;2.13;;;1.27;;
3916;SDS011;1973;50.518;7.318;2022-10-16T15:42:54;2.17;;;1.10;;
3916;SDS011;1973;50.518;7.318;2022-10-16T15:45:21;1.10;;;1.00;;
3916;SDS011;1973;50.518;7.318;2022-10-16T15:47:47;1.70;;;1.07;;
3916;SDS011;1973;50.518;7.318;2022-10-16T15:50:14;1.20;;;1.00;;
3916;SDS011;1973;50.518;7.318;2022-10-16T15:52:42;1.33;;;1.23;;
3916;SDS011;1973;50.518;7.318;2022-10-16T15:55:09;1.40;;;1.10;;
3916;SDS011;1973;50.518;7.318;2022-10-16T15:57:37;2.00;;;1.10;;
3916;SDS011;1973;50.518;7.318;2022-10-16T16:00:05;1.67;;;1.00;;
3916;SDS011;1973;50.518;7.318;2022-10-16T16:02:36;1.60;;;1.00;;
3916;SDS011;1973;50.518;7.318;2022-10-16T16:05:03;2.80;;;0.83;;
3916;SDS011;1973;50.518;7.318;2022-10-16T16:07:34;1.23;;;0.80;;
3916;SDS011;1973;50.518;7.318;2022-10-16T16:10:02;1.47;;;1.10;;
3916;SDS011;1973;50.518;7.318;2022-10-16T16:12:31;1.10;;;0.80;;
3916;SDS011;1973;50.518;7.318;2022-10-16T16:14:58;1.40;;;0.80;;
3916;SDS011;1973;50.518;7.318;2022-10-16T16:17:30;1.73;;;1.13;;
3916;SDS011;1973;50.518;7.318;2022-10-16T16:19:57;1.30;;;0.80;;
3916;SDS011;1973;50.518;7.318;2022-10-16T16:22:24;1.20;;;0.90;;
3916;SDS011;1973;50.518;7.318;2022-10-16T16:24:51;1.20;;;1.00;;
3916;SDS011;1973;50.518;7.318;2022-10-16T16:27:17;1.97;;;1.10;;
3916;SDS011;1973;50.518;7.318;2022-10-16T16:29:46;1.30;;;1.00;;
3916;SDS011;1973;50.518;7.318;2022-10-16T16:32:13;1.27;;;1.00;;
3916;SDS011;1973;50.518;7.318;2022-10-16T16:34:40;1.83;;;0.90;;
3916;SDS011;1973;50.518;7.318;2022-10-16T16:37:06;3.73;;;0.90;;
3916;SDS011;1973;50.518;7.318;2022-10-16T16:39:33;1.07;;;0.87;;
3916;SDS011;1973;50.518;7.318;2022-10-16T16:41:59;1.87;;;0.90;;
3916;SDS011;1973;50.518;7.318;2022-10-16T16:44:26;1.40;;;1.10;;
3916;SDS011;1973;50.518;7.318;2022-10-16T16:46:52;1.57;;;1.17;;
3916;SDS011;1973;50.518;7.318;2022-10-16T16:49:20;1.30;;;1.20;;
3916;SDS011;1973;50.518;7.318;2022-10-16T16:51:47;2.30;;;1.20;;
3916;SDS011;1973;50.518;7.318;2022-10-16T16:54:13;2.57;;;1.10;;
3916;SDS011;1973;50.518;7.318;2022-10-16T16:56:40;1.80;;;1.30;;
3916;SDS011;1973;50.518;7.318;2022-10-16T16:59:14;1.40;;;1.13;;
3916;SDS011;1973;50.518;7.318;2022-10-16T17:01:42;2.43;;;1.33;;
3916;SDS011;1973;50.518;7.318;2022-10-16T17:04:10;3.17;;;2.87;;
3916;SDS011;1973;50.518;7.318;2022-10-16T17:06:37;3.93;;;3.23;;
3916;SDS011;1973;50.518;7.318;2022-10-16T17:09:04;2.50;;;2.30;;
3916;SDS011;1973;50.518;7.318;2022-10-16T17:11:32;2.40;;;2.20;;
3916;SDS011;1973;50.518;7.318;2022-10-16T17:13:59;3.67;;;3.10;;
3916;SDS011;1973;50.518;7.318;2022-10-16T17:16:28;2.43;;;2.23;;
3916;SDS011;1973;50.518;7.318;2022-10-16T17:19:00;1.67;;;1.57;;
3916;SDS011;1973;50.518;7.318;2022-10-16T17:21:27;2.77;;;2.30;;
3916;SDS011;1973;50.518;7.318;2022-10-16T17:23:55;2.97;;;1.77;;
3916;SDS011;1973;50.518;7.318;2022-10-16T17:26:22;2.60;;;2.10;;
3916;SDS011;1973;50.518;7.318;2022-10-16T17:28:53;2.70;;;2.50;;